createdAt,value
2019-05-01T00:01:48.375Z,14.54
2019-05-01T00:04:28.491Z,14.46
2019-05-01T00:07:00.674Z,14.52
2019-05-01T00:09:31.659Z,14.44
2019-05-01T00:12:04.153Z,14.43
2019-05-01T00:14:34.563Z,14.44
2019-05-01T00:17:08.413Z,14.49
2019-05-01T00:19:38.816Z,14.50
2019-05-01T00:22:10.372Z,14.43
2019-05-01T00:24:39.864Z,14.32
2019-05-01T00:27:09.470Z,14.32
2019-05-01T00:29:40.038Z,14.15
2019-05-01T00:32:12.413Z,14.19
2019-05-01T00:34:41.903Z,14.14
2019-05-01T00:37:12.285Z,14.09
2019-05-01T00:39:44.623Z,14.05
2019-05-01T00:42:14.051Z,14.05
2019-05-01T00:44:44.439Z,13.91
2019-05-01T00:47:15.860Z,14.00
2019-05-01T00:49:46.191Z,13.88
2019-05-01T00:52:15.499Z,13.92
2019-05-01T00:54:47.522Z,13.84
2019-05-01T00:57:21.170Z,13.83
2019-05-01T01:00:11.417Z,13.83
2019-05-01T01:02:44.650Z,13.85
2019-05-01T01:05:15.473Z,13.76
2019-05-01T01:07:45.879Z,13.78
2019-05-01T01:10:16.485Z,13.78
2019-05-01T01:12:46.891Z,13.79
2019-05-01T01:15:20.328Z,13.78
2019-05-01T01:17:50.733Z,13.75
2019-05-01T01:20:21.181Z,13.73
2019-05-01T01:22:51.753Z,13.74
2019-05-01T01:25:22.369Z,13.70
2019-05-01T01:27:52.987Z,13.63
2019-05-01T01:30:23.602Z,13.51
2019-05-01T01:32:52.853Z,13.48
2019-05-01T01:35:25.671Z,13.45
2019-05-01T01:37:55.970Z,13.40
2019-05-01T01:40:26.698Z,13.41
2019-05-01T01:42:58.966Z,13.46
2019-05-01T01:45:38.770Z,13.28
2019-05-01T01:48:13.575Z,13.29
2019-05-01T01:50:46.511Z,13.27
2019-05-01T01:53:18.874Z,13.25
2019-05-01T01:55:48.965Z,13.24
2019-05-01T01:58:20.618Z,13.13
2019-05-01T02:01:09.568Z,13.08
2019-05-01T02:03:40.871Z,13.02
2019-05-01T02:06:11.377Z,13.12
2019-05-01T02:08:40.413Z,13.12
2019-05-01T02:11:11.029Z,13.10
2019-05-01T02:13:41.868Z,13.14
2019-05-01T02:16:12.256Z,12.95
2019-05-01T02:18:41.833Z,12.87
2019-05-01T02:21:12.502Z,12.95
2019-05-01T02:23:44.467Z,12.94
2019-05-01T02:26:15.752Z,12.93
2019-05-01T02:28:47.267Z,12.85
2019-05-01T02:31:28.007Z,12.70
2019-05-01T02:33:54.946Z,12.82
2019-05-01T02:36:26.594Z,12.81
2019-05-01T02:38:58.225Z,12.90
2019-05-01T02:41:33.384Z,12.94
2019-05-01T02:44:11.576Z,12.94
2019-05-01T02:46:43.664Z,12.85
2019-05-01T02:49:21.268Z,12.69
2019-05-01T02:51:52.154Z,12.75
2019-05-01T02:54:23.434Z,12.70
2019-05-01T02:56:56.703Z,12.71
2019-05-01T02:59:30.198Z,12.63
2019-05-01T03:02:02.966Z,12.67
2019-05-01T03:04:36.342Z,12.72
2019-05-01T03:07:09.791Z,12.63
2019-05-01T03:09:43.795Z,12.46
2019-05-01T03:12:14.676Z,12.56
2019-05-01T03:14:48.091Z,12.51
2019-05-01T03:17:38.104Z,12.60
2019-05-01T03:20:29.267Z,12.48
2019-05-01T03:23:12.866Z,12.42
2019-05-01T03:25:42.877Z,12.49
2019-05-01T03:28:14.639Z,12.46
2019-05-01T03:30:44.369Z,12.51
2019-05-01T03:33:15.471Z,12.45
2019-05-01T03:35:46.178Z,12.43
2019-05-01T03:38:15.784Z,12.35
2019-05-01T03:40:47.507Z,12.44
2019-05-01T03:43:17.120Z,12.42
2019-05-01T03:45:47.920Z,12.47
2019-05-01T03:48:18.515Z,12.35
2019-05-01T03:50:49.860Z,12.35
2019-05-01T03:53:20.621Z,12.31
2019-05-01T03:55:50.673Z,12.44
2019-05-01T03:58:23.894Z,12.47
2019-05-01T04:01:12.310Z,12.48
2019-05-01T04:03:47.207Z,12.53
2019-05-01T04:06:16.742Z,12.58
2019-05-01T04:08:46.094Z,12.74
2019-05-01T04:11:17.075Z,12.69
2019-05-01T04:13:46.724Z,12.71
2019-05-01T04:16:17.148Z,12.88
2019-05-01T04:18:46.683Z,13.00
2019-05-01T04:21:19.898Z,13.16
2019-05-01T04:23:51.349Z,13.42
2019-05-01T04:26:21.862Z,13.30
2019-05-01T04:28:55.317Z,13.54
2019-05-01T04:31:26.388Z,13.68
2019-05-01T04:33:58.617Z,13.91
2019-05-01T04:36:31.010Z,14.22
2019-05-01T04:39:01.974Z,14.39
2019-05-01T04:41:34.422Z,15.43
2019-05-01T04:44:04.346Z,15.36
2019-05-01T04:46:35.278Z,17.07
2019-05-01T04:49:04.993Z,18.92
2019-05-01T04:51:35.626Z,20.45
2019-05-01T04:54:05.136Z,21.55
2019-05-01T04:56:34.577Z,22.55
2019-05-01T04:59:05.482Z,22.70
2019-05-01T05:01:52.802Z,23.16
2019-05-01T05:04:24.375Z,22.99
2019-05-01T05:06:55.342Z,23.72
2019-05-01T05:09:39.243Z,24.21
2019-05-01T05:12:12.240Z,25.45
2019-05-01T05:14:53.250Z,25.56
2019-05-01T05:17:26.590Z,25.70
2019-05-01T05:19:57.926Z,26.73
2019-05-01T05:22:28.646Z,28.09
2019-05-01T05:25:00.518Z,27.80
2019-05-01T05:27:31.635Z,27.48
2019-05-01T05:30:01.839Z,28.16
2019-05-01T05:32:34.453Z,29.48
2019-05-01T05:35:06.381Z,30.85
2019-05-01T05:37:59.406Z,30.79
2019-05-01T05:40:32.975Z,31.17
2019-05-01T05:43:03.543Z,31.11
2019-05-01T05:45:36.254Z,29.88
2019-05-01T05:48:05.755Z,29.98
2019-05-01T05:50:40.082Z,31.62
2019-05-01T05:53:15.292Z,32.95
2019-05-01T05:55:49.166Z,33.89
2019-05-01T05:58:24.244Z,32.42
2019-05-01T06:00:59.316Z,30.08
2019-05-01T06:03:48.608Z,28.57
2019-05-01T06:06:26.167Z,26.15
2019-05-01T06:08:59.887Z,28.09
2019-05-01T06:11:35.401Z,32.49
2019-05-01T06:14:07.149Z,28.13
2019-05-01T06:16:40.649Z,25.47
2019-05-01T06:19:16.353Z,26.17
2019-05-01T06:22:10.118Z,28.64
2019-05-01T06:24:42.679Z,28.64
2019-05-01T06:27:13.879Z,35.08
2019-05-01T06:29:45.471Z,37.85
2019-05-01T06:32:15.791Z,36.98
2019-05-01T06:34:46.485Z,39.43
2019-05-01T06:37:20.897Z,40.02
2019-05-01T06:39:51.563Z,39.45
2019-05-01T06:42:22.028Z,39.56
2019-05-01T06:44:54.999Z,39.23
2019-05-01T06:47:27.179Z,40.09
2019-05-01T06:50:07.242Z,38.85
2019-05-01T06:52:41.530Z,40.50
2019-05-01T06:55:10.990Z,35.39
2019-05-01T06:57:43.712Z,33.32
2019-05-01T07:00:15.627Z,40.08
2019-05-01T07:02:47.892Z,42.62
2019-05-01T07:05:18.674Z,43.34
2019-05-01T07:07:53.144Z,44.56
2019-05-01T07:10:30.559Z,44.41
2019-05-01T07:12:53.799Z,43.75
2019-05-01T07:15:26.793Z,44.76
2019-05-01T07:17:57.268Z,43.95
2019-05-01T07:20:35.503Z,44.12
2019-05-01T07:23:06.649Z,43.88
2019-05-01T07:25:39.399Z,43.49
2019-05-01T07:28:08.464Z,44.87
2019-05-01T07:30:41.566Z,43.88
2019-05-01T07:33:16.751Z,45.62
2019-05-01T07:35:47.605Z,46.93
2019-05-01T07:38:19.315Z,47.71
2019-05-01T07:40:48.773Z,46.53
2019-05-01T07:43:26.350Z,47.27
2019-05-01T07:46:04.164Z,48.62
2019-05-01T07:48:41.726Z,47.35
2019-05-01T07:51:11.658Z,48.65
2019-05-01T07:53:44.468Z,48.65
2019-05-01T07:56:16.980Z,48.10
2019-05-01T07:58:47.539Z,49.32
2019-05-01T08:01:37.307Z,49.93
2019-05-01T08:04:07.817Z,48.04
2019-05-01T08:06:38.231Z,46.39
2019-05-01T08:09:11.381Z,48.13
2019-05-01T08:11:44.016Z,49.89
2019-05-01T08:14:16.640Z,50.62
2019-05-01T08:16:44.647Z,48.90
2019-05-01T08:19:16.724Z,47.96
2019-05-01T08:22:07.710Z,48.23
2019-05-01T08:24:41.981Z,48.64
2019-05-01T08:27:15.675Z,49.63
2019-05-01T08:29:52.544Z,47.79
2019-05-01T08:32:33.884Z,47.20
2019-05-01T08:35:04.507Z,47.81
2019-05-01T08:37:33.903Z,47.64
2019-05-01T08:40:07.700Z,45.59
2019-05-01T08:42:42.675Z,46.94
2019-05-01T08:45:24.702Z,47.99
2019-05-01T08:48:02.734Z,48.47
2019-05-01T08:50:36.168Z,50.89
2019-05-01T08:53:06.574Z,51.40
2019-05-01T08:55:39.835Z,51.09
2019-05-01T08:58:13.949Z,50.76
2019-05-01T09:00:43.647Z,46.36
2019-05-01T09:03:18.719Z,43.90
2019-05-01T09:05:45.794Z,46.88
2019-05-01T09:08:15.280Z,44.93
2019-05-01T09:10:44.740Z,45.27
2019-05-01T09:13:18.876Z,46.98
2019-05-01T09:15:48.292Z,46.53
2019-05-01T09:18:21.492Z,46.03
2019-05-01T09:20:55.657Z,45.68
2019-05-01T09:23:29.302Z,41.41
2019-05-01T09:26:14.812Z,36.49
2019-05-01T09:28:48.018Z,34.25
2019-05-01T09:31:19.048Z,33.39
2019-05-01T09:33:49.624Z,32.37
2019-05-01T09:36:20.358Z,31.57
2019-05-01T09:38:50.805Z,32.05
2019-05-01T09:41:22.101Z,32.29
2019-05-01T09:43:51.811Z,31.52
2019-05-01T09:46:22.631Z,30.18
2019-05-01T09:48:52.168Z,29.70
2019-05-01T09:51:42.613Z,30.03
2019-05-01T09:54:17.315Z,31.23
2019-05-01T09:56:49.905Z,32.82
2019-05-01T09:59:20.425Z,32.85
2019-05-01T10:01:51.223Z,32.96
2019-05-01T10:04:20.646Z,32.98
2019-05-01T10:06:52.199Z,33.10
2019-05-01T10:09:21.219Z,32.55
2019-05-01T10:11:51.605Z,32.08
2019-05-01T10:14:22.010Z,33.11
2019-05-01T10:16:50.852Z,32.76
2019-05-01T10:19:20.255Z,32.88
2019-05-01T10:21:50.637Z,32.28
2019-05-01T10:24:22.400Z,31.78
2019-05-01T10:26:55.258Z,31.51
2019-05-01T10:29:44.708Z,31.40
2019-05-01T10:32:21.682Z,30.79
2019-05-01T10:34:52.211Z,30.08
2019-05-01T10:37:23.703Z,29.62
2019-05-01T10:39:54.011Z,28.98
2019-05-01T10:42:25.316Z,29.26
2019-05-01T10:44:55.923Z,29.58
2019-05-01T10:47:24.754Z,29.61
2019-05-01T10:49:54.128Z,29.66
2019-05-01T10:52:25.908Z,29.68
2019-05-01T10:54:55.345Z,29.32
2019-05-01T10:57:25.870Z,29.22
2019-05-01T10:59:56.259Z,28.51
2019-05-01T11:02:28.135Z,28.39
2019-05-01T11:04:58.481Z,28.79
2019-05-01T11:07:29.053Z,28.91
2019-05-01T11:10:01.336Z,28.34
2019-05-01T11:12:32.432Z,27.99
2019-05-01T11:15:02.871Z,28.19
2019-05-01T11:17:32.277Z,28.25
2019-05-01T11:20:02.845Z,28.22
2019-05-01T11:22:32.221Z,27.77
2019-05-01T11:25:01.629Z,26.89
2019-05-01T11:27:31.165Z,26.49
2019-05-01T11:30:03.110Z,26.34
2019-05-01T11:32:49.396Z,26.09
2019-05-01T11:35:33.482Z,25.86
2019-05-01T11:38:22.527Z,25.96
2019-05-01T11:40:52.745Z,25.51
2019-05-01T11:43:23.216Z,25.80
2019-05-01T11:45:52.707Z,25.44
2019-05-01T11:48:25.152Z,25.44
2019-05-01T11:50:53.511Z,25.42
2019-05-01T11:53:24.179Z,25.67
2019-05-01T11:55:58.139Z,25.78
2019-05-01T11:58:27.507Z,25.98
2019-05-01T12:00:59.581Z,26.25
2019-05-01T12:03:31.857Z,26.55
2019-05-01T12:06:01.221Z,26.56
2019-05-01T12:08:33.266Z,27.04
2019-05-01T12:11:03.747Z,27.04
2019-05-01T12:13:43.468Z,28.26
2019-05-01T12:16:07.128Z,28.26
2019-05-01T12:18:36.698Z,28.47
2019-05-01T12:21:06.164Z,28.29
2019-05-01T12:23:36.565Z,28.70
2019-05-01T12:26:07.551Z,29.08
2019-05-01T12:28:38.004Z,29.50
2019-05-01T12:31:10.580Z,29.53
2019-05-01T12:33:42.995Z,29.86
2019-05-01T12:36:13.611Z,30.32
2019-05-01T12:38:44.022Z,30.54
2019-05-01T12:41:21.139Z,30.49
2019-05-01T12:43:50.611Z,30.25
2019-05-01T12:46:27.251Z,30.24
2019-05-01T12:48:58.073Z,30.37
2019-05-01T12:51:29.723Z,29.97
2019-05-01T12:54:18.944Z,30.43
2019-05-01T12:57:04.076Z,30.15
2019-05-01T12:59:35.104Z,29.82
2019-05-01T13:02:05.618Z,30.14
2019-05-01T13:04:36.017Z,29.99
2019-05-01T13:07:07.995Z,29.54
2019-05-01T13:09:38.388Z,30.13
2019-05-01T13:12:07.547Z,30.60
2019-05-01T13:14:38.990Z,30.34
2019-05-01T13:17:08.350Z,30.55
2019-05-01T13:19:41.997Z,30.25
2019-05-01T13:22:12.508Z,30.77
2019-05-01T13:24:51.913Z,30.66
2019-05-01T13:27:23.115Z,30.99
2019-05-01T13:29:54.312Z,30.71
2019-05-01T13:32:35.330Z,30.52
2019-05-01T13:35:06.675Z,30.34
2019-05-01T13:37:36.036Z,30.38
2019-05-01T13:40:11.251Z,30.09
2019-05-01T13:42:43.752Z,30.06
2019-05-01T13:45:16.862Z,30.64
2019-05-01T13:47:47.267Z,30.76
2019-05-01T13:50:17.889Z,29.52
2019-05-01T13:52:48.288Z,29.26
2019-05-01T13:55:19.431Z,29.48
2019-05-01T13:57:49.831Z,29.54
2019-05-01T14:00:20.293Z,29.57
2019-05-01T14:02:52.626Z,29.44
2019-05-01T14:05:21.996Z,28.85
2019-05-01T14:07:52.120Z,28.41
2019-05-01T14:10:22.494Z,28.70
2019-05-01T14:12:52.892Z,28.21
2019-05-01T14:15:22.405Z,28.16
2019-05-01T14:17:54.958Z,28.52
2019-05-01T14:20:29.549Z,28.97
2019-05-01T14:23:00.920Z,29.22
2019-05-01T14:25:31.926Z,29.70
2019-05-01T14:28:03.783Z,30.70
2019-05-01T14:30:34.284Z,30.72
2019-05-01T14:33:04.698Z,30.25
2019-05-01T14:35:34.106Z,29.67
2019-05-01T14:38:03.576Z,28.90
2019-05-01T14:40:33.480Z,29.57
2019-05-01T14:43:03.024Z,30.33
2019-05-01T14:45:33.394Z,29.77
2019-05-01T14:48:02.859Z,29.70
2019-05-01T14:50:34.350Z,29.16
2019-05-01T14:53:05.347Z,29.00
2019-05-01T14:55:35.749Z,29.26
2019-05-01T14:58:05.464Z,28.92
2019-05-01T15:00:35.944Z,28.98
2019-05-01T15:03:07.162Z,28.89
2019-05-01T15:05:38.508Z,28.92
2019-05-01T15:08:10.585Z,29.02
2019-05-01T15:10:39.994Z,28.86
2019-05-01T15:13:12.129Z,28.87
2019-05-01T15:15:59.393Z,28.77
2019-05-01T15:18:46.535Z,28.98
2019-05-01T15:21:18.335Z,28.62
2019-05-01T15:23:53.606Z,28.66
2019-05-01T15:26:21.878Z,28.35
2019-05-01T15:28:51.484Z,27.65
2019-05-01T15:31:21.480Z,27.52
2019-05-01T15:33:51.357Z,27.19
2019-05-01T15:36:20.776Z,26.47
2019-05-01T15:38:51.397Z,26.81
2019-05-01T15:41:38.731Z,26.65
2019-05-01T15:44:22.589Z,26.51
2019-05-01T15:46:51.998Z,26.24
2019-05-01T15:49:21.351Z,25.88
2019-05-01T15:51:53.803Z,25.97
2019-05-01T15:54:25.289Z,25.90
2019-05-01T15:56:55.869Z,25.68
2019-05-01T15:59:26.278Z,25.63
2019-05-01T16:01:55.649Z,25.63
2019-05-01T16:04:25.045Z,25.21
2019-05-01T16:06:57.281Z,25.90
2019-05-01T16:09:28.001Z,25.89
2019-05-01T16:12:15.059Z,25.50
2019-05-01T16:14:47.585Z,25.25
2019-05-01T16:17:18.190Z,24.83
2019-05-01T16:19:47.696Z,25.24
2019-05-01T16:22:17.211Z,25.37
2019-05-01T16:24:46.634Z,24.93
2019-05-01T16:27:17.036Z,25.07
2019-05-01T16:29:47.659Z,25.20
2019-05-01T16:32:19.515Z,24.73
2019-05-01T16:34:50.006Z,25.37
2019-05-01T16:37:20.561Z,25.07
2019-05-01T16:39:55.533Z,24.73
2019-05-01T16:42:29.491Z,24.58
2019-05-01T16:45:01.147Z,24.34
2019-05-01T16:47:32.090Z,24.64
2019-05-01T16:50:01.556Z,24.65
2019-05-01T16:52:32.686Z,24.24
2019-05-01T16:55:02.194Z,24.32
2019-05-01T16:57:34.289Z,24.42
2019-05-01T17:00:05.790Z,24.44
2019-05-01T17:02:39.315Z,24.60
2019-05-01T17:05:25.221Z,24.42
2019-05-01T17:07:57.464Z,24.44
2019-05-01T17:10:29.744Z,24.53
2019-05-01T17:13:00.368Z,24.65
2019-05-01T17:15:32.464Z,24.54
2019-05-01T17:18:01.968Z,24.16
2019-05-01T17:20:31.428Z,23.98
2019-05-01T17:23:01.791Z,23.82
2019-05-01T17:25:32.287Z,23.52
2019-05-01T17:28:08.248Z,23.43
2019-05-01T17:30:44.592Z,23.82
2019-05-01T17:33:20.077Z,23.72
2019-05-01T17:35:45.255Z,23.38
2019-05-01T17:38:16.821Z,23.65
2019-05-01T17:40:47.455Z,23.75
2019-05-01T17:43:20.921Z,23.78
2019-05-01T17:45:51.515Z,23.78
2019-05-01T17:48:21.918Z,23.42
2019-05-01T17:50:55.053Z,23.54
2019-05-01T17:53:24.933Z,23.61
2019-05-01T17:55:54.622Z,23.56
2019-05-01T17:58:25.013Z,23.58
2019-05-01T18:01:13.169Z,23.43
2019-05-01T18:04:00.386Z,23.28
2019-05-01T18:06:30.532Z,22.89
2019-05-01T18:09:03.210Z,22.54
2019-05-01T18:11:33.168Z,22.28
2019-05-01T18:14:05.674Z,22.19
2019-05-01T18:16:35.794Z,21.97
2019-05-01T18:19:09.770Z,21.98
2019-05-01T18:21:39.502Z,22.10
2019-05-01T18:24:27.661Z,22.17
2019-05-01T18:26:58.731Z,21.95
2019-05-01T18:29:35.503Z,21.96
2019-05-01T18:32:08.164Z,21.73
2019-05-01T18:34:39.513Z,21.85
2019-05-01T18:37:25.002Z,21.66
2019-05-01T18:39:56.695Z,21.78
2019-05-01T18:42:26.144Z,21.89
2019-05-01T18:44:55.025Z,22.00
2019-05-01T18:47:25.712Z,22.00
2019-05-01T18:49:56.361Z,21.95
2019-05-01T18:52:25.867Z,21.91
2019-05-01T18:54:56.438Z,21.93
2019-05-01T18:57:25.848Z,21.74
2019-05-01T18:59:55.378Z,21.72
2019-05-01T19:02:25.075Z,21.70
2019-05-01T19:04:56.393Z,21.66
2019-05-01T19:07:26.901Z,21.62
2019-05-01T19:09:58.773Z,21.48
2019-05-01T19:12:31.477Z,21.26
2019-05-01T19:15:05.317Z,21.31
2019-05-01T19:17:33.940Z,21.36
2019-05-01T19:20:06.241Z,21.28
2019-05-01T19:22:35.526Z,21.20
2019-05-01T19:25:11.094Z,21.26
2019-05-01T19:27:37.722Z,21.20
2019-05-01T19:30:14.344Z,21.12
2019-05-01T19:32:41.100Z,21.07
2019-05-01T19:35:11.597Z,21.12
2019-05-01T19:37:42.008Z,21.10
2019-05-01T19:40:11.479Z,21.17
2019-05-01T19:42:42.084Z,21.09
2019-05-01T19:45:11.559Z,21.09
2019-05-01T19:47:40.803Z,21.03
2019-05-01T19:50:12.154Z,20.92
2019-05-01T19:52:42.571Z,20.84
2019-05-01T19:55:13.430Z,20.76
2019-05-01T19:57:42.747Z,20.67
2019-05-01T20:00:16.850Z,20.53
2019-05-01T20:02:47.417Z,20.59
2019-05-01T20:05:16.929Z,20.37
2019-05-01T20:07:51.198Z,20.20
2019-05-01T20:10:19.574Z,20.10
2019-05-01T20:12:51.185Z,20.14
2019-05-01T20:15:25.227Z,20.07
2019-05-01T20:17:52.668Z,19.89
2019-05-01T20:20:23.060Z,19.85
2019-05-01T20:22:53.084Z,19.73
2019-05-01T20:25:23.721Z,19.77
2019-05-01T20:27:54.089Z,19.73
2019-05-01T20:30:23.585Z,19.59
2019-05-01T20:32:53.163Z,19.72
2019-05-01T20:35:23.929Z,19.70
2019-05-01T20:37:55.631Z,19.67
2019-05-01T20:40:27.413Z,19.52
2019-05-01T20:43:01.116Z,19.56
2019-05-01T20:45:29.134Z,19.50
2019-05-01T20:48:01.394Z,19.51
2019-05-01T20:50:31.702Z,19.52
2019-05-01T20:53:02.212Z,19.55
2019-05-01T20:55:32.562Z,19.45
2019-05-01T20:58:19.698Z,19.39
2019-05-01T21:00:53.549Z,19.31
2019-05-01T21:03:23.166Z,19.26
2019-05-01T21:05:53.565Z,19.29
2019-05-01T21:08:39.213Z,19.27
2019-05-01T21:11:11.083Z,19.13
2019-05-01T21:13:38.497Z,19.01
2019-05-01T21:16:07.892Z,18.96
2019-05-01T21:18:37.518Z,18.92
2019-05-01T21:21:07.022Z,19.00
2019-05-01T21:23:36.441Z,19.05
2019-05-01T21:26:05.838Z,18.84
2019-05-01T21:28:35.369Z,18.73
2019-05-01T21:31:04.663Z,18.76
2019-05-01T21:33:40.758Z,18.80
2019-05-01T21:36:10.559Z,18.46
2019-05-01T21:38:40.057Z,18.52
2019-05-01T21:41:09.418Z,18.58
2019-05-01T21:43:38.905Z,18.56
2019-05-01T21:46:08.308Z,18.67
2019-05-01T21:48:38.812Z,18.54
2019-05-01T21:51:09.437Z,18.58
2019-05-01T21:53:42.799Z,18.48
2019-05-01T21:56:11.570Z,18.54
2019-05-01T21:58:41.003Z,18.47
2019-05-01T22:01:10.328Z,18.52
2019-05-01T22:03:41.048Z,18.53
2019-05-01T22:06:11.275Z,18.55
2019-05-01T22:08:41.692Z,18.58
2019-05-01T22:11:11.222Z,18.50
2019-05-01T22:13:40.619Z,18.43
2019-05-01T22:16:18.532Z,18.35
2019-05-01T22:18:59.869Z,18.33
2019-05-01T22:21:34.868Z,18.42
2019-05-01T22:24:23.779Z,18.31
2019-05-01T22:26:54.208Z,18.33
2019-05-01T22:29:27.190Z,18.25
2019-05-01T22:31:58.980Z,18.26
2019-05-01T22:34:39.799Z,18.23
2019-05-01T22:37:10.207Z,18.20
2019-05-01T22:39:41.360Z,18.01
2019-05-01T22:42:10.865Z,18.02
2019-05-01T22:44:40.377Z,17.97
2019-05-01T22:47:14.991Z,17.98
2019-05-01T22:49:44.399Z,17.98
2019-05-01T22:52:15.041Z,17.95
2019-05-01T22:54:44.882Z,17.82
2019-05-01T22:57:16.790Z,17.87
2019-05-01T22:59:48.202Z,17.90
2019-05-01T23:02:28.357Z,17.83
2019-05-01T23:04:57.947Z,17.76
2019-05-01T23:07:28.545Z,17.67
2019-05-01T23:09:59.441Z,17.53
2019-05-01T23:12:30.101Z,17.61
2019-05-01T23:15:00.504Z,17.62
2019-05-01T23:17:46.357Z,17.54
2019-05-01T23:20:17.135Z,17.58
2019-05-01T23:22:45.608Z,17.48
2019-05-01T23:25:16.529Z,17.51
2019-05-01T23:27:46.118Z,17.41
2019-05-01T23:30:17.481Z,17.33
2019-05-01T23:32:47.853Z,17.40
2019-05-01T23:35:19.507Z,17.40
2019-05-01T23:37:50.053Z,17.45
2019-05-01T23:40:21.895Z,17.35
2019-05-01T23:42:53.493Z,17.32
2019-05-01T23:45:23.533Z,17.26
2019-05-01T23:47:53.616Z,17.25
2019-05-01T23:50:24.041Z,17.22
2019-05-01T23:52:55.696Z,17.20
2019-05-01T23:55:26.095Z,17.20
2019-05-01T23:57:56.605Z,17.15
